createdAt,value
2018-04-27T00:00:08.763Z,93511.88
2018-04-27T00:02:36.299Z,93513.81
2018-04-27T00:05:03.954Z,93515.63
2018-04-27T00:07:31.488Z,93510.63
2018-04-27T00:09:59.025Z,93507.00
2018-04-27T00:12:26.690Z,93514.41
2018-04-27T00:14:54.227Z,93506.86
2018-04-27T00:17:21.776Z,93509.20
2018-04-27T00:19:49.367Z,93499.19
2018-04-27T00:22:16.911Z,93500.63
2018-04-27T00:24:44.435Z,93505.49
2018-04-27T00:27:12.376Z,93506.98
2018-04-27T00:29:39.936Z,93509.77
2018-04-27T00:32:07.497Z,93521.72
2018-04-27T00:34:35.371Z,93521.02
2018-04-27T00:37:02.912Z,93531.26
2018-04-27T00:39:30.458Z,93533.56
2018-04-27T00:41:58.026Z,93544.66
2018-04-27T00:44:25.554Z,93547.18
2018-04-27T00:46:53.082Z,93545.59
2018-04-27T00:49:20.802Z,93548.95
2018-04-27T00:51:48.335Z,93547.27
2018-04-27T00:54:15.862Z,93550.41
2018-04-27T00:56:43.422Z,93542.95
2018-04-27T00:59:10.978Z,93544.38
2018-04-27T01:01:38.512Z,93553.37
2018-04-27T01:04:06.193Z,93554.03
2018-04-27T01:06:33.737Z,93554.79
2018-04-27T01:09:01.279Z,93546.07
2018-04-27T01:11:29.141Z,93547.81
2018-04-27T01:13:56.667Z,93539.28
2018-04-27T01:16:24.199Z,93539.88
2018-04-27T01:18:52.053Z,93544.20
2018-04-27T01:21:19.620Z,93551.47
2018-04-27T01:23:47.151Z,93548.66
2018-04-27T01:26:14.721Z,93547.52
2018-04-27T01:28:42.259Z,93554.81
2018-04-27T01:31:09.890Z,93551.72
2018-04-27T01:33:37.531Z,93542.53
2018-04-27T01:36:05.934Z,93545.81
2018-04-27T01:38:33.461Z,93546.85
2018-04-27T01:41:01.145Z,93541.39
2018-04-27T01:43:28.684Z,93547.39
2018-04-27T01:45:56.222Z,93547.98
2018-04-27T01:48:24.083Z,93541.73
2018-04-27T01:50:51.619Z,93541.23
2018-04-27T01:53:19.191Z,93540.00
2018-04-27T01:55:46.759Z,93532.08
2018-04-27T01:58:14.291Z,93526.58
2018-04-27T02:00:41.846Z,93522.06
2018-04-27T02:03:09.547Z,93520.55
2018-04-27T02:05:37.081Z,93514.70
2018-04-27T02:08:04.647Z,93519.34
2018-04-27T02:10:32.237Z,93516.59
2018-04-27T02:12:59.792Z,93522.03
2018-04-27T02:15:27.350Z,93525.52
2018-04-27T02:17:55.073Z,93530.77
2018-04-27T02:20:22.625Z,93537.92
2018-04-27T02:22:50.189Z,93548.81
2018-04-27T02:25:17.907Z,93553.19
2018-04-27T02:27:45.435Z,93560.06
2018-04-27T02:30:13.112Z,93563.13
2018-04-27T02:32:40.781Z,93572.30
2018-04-27T02:35:08.306Z,93575.62
2018-04-27T02:37:35.857Z,93580.47
2018-04-27T02:40:03.445Z,93585.19
2018-04-27T02:42:30.987Z,93588.70
2018-04-27T02:44:58.519Z,93587.27
2018-04-27T02:47:26.246Z,93579.03
2018-04-27T02:49:53.782Z,93577.24
2018-04-27T02:52:21.314Z,93580.86
2018-04-27T02:54:48.856Z,93584.77
2018-04-27T02:57:16.392Z,93582.04
2018-04-27T02:59:43.950Z,93582.25
2018-04-27T03:02:11.504Z,93581.10
2018-04-27T03:04:39.080Z,93583.84
2018-04-27T03:07:06.670Z,93587.27
2018-04-27T03:09:34.227Z,93586.00
2018-04-27T03:12:01.790Z,93582.72
2018-04-27T03:14:29.461Z,93581.25
2018-04-27T03:16:56.993Z,93587.18
2018-04-27T03:19:24.546Z,93587.97
2018-04-27T03:21:52.221Z,93588.94
2018-04-27T03:24:19.753Z,93594.95
2018-04-27T03:26:47.315Z,93593.19
2018-04-27T03:29:14.900Z,93598.91
2018-04-27T03:31:42.437Z,93597.09
2018-04-27T03:34:09.980Z,93592.08
2018-04-27T03:36:37.693Z,93598.77
2018-04-27T03:39:05.266Z,93608.70
2018-04-27T03:41:32.848Z,93608.72
2018-04-27T03:44:00.568Z,93610.82
2018-04-27T03:46:28.091Z,93609.30
2018-04-27T03:48:55.639Z,93626.23
2018-04-27T03:51:23.496Z,93636.41
2018-04-27T03:53:51.047Z,93642.31
2018-04-27T03:56:18.605Z,93655.71
2018-04-27T03:58:46.341Z,93659.21
2018-04-27T04:01:25.500Z,93667.08
2018-04-27T04:04:04.723Z,93665.61
2018-04-27T04:06:32.255Z,93660.93
2018-04-27T04:08:59.783Z,93664.94
2018-04-27T04:11:27.360Z,93667.48
2018-04-27T04:13:54.908Z,93667.77
2018-04-27T04:16:22.454Z,93676.88
2018-04-27T04:18:50.189Z,93675.13
2018-04-27T04:21:17.729Z,93671.17
2018-04-27T04:23:45.283Z,93662.92
2018-04-27T04:26:13.146Z,93672.45
2018-04-27T04:28:40.679Z,93671.23
2018-04-27T04:31:08.228Z,93669.22
2018-04-27T04:33:35.823Z,93672.82
2018-04-27T04:36:03.364Z,93672.09
2018-04-27T04:38:30.914Z,93675.73
2018-04-27T04:40:58.501Z,93676.91
2018-04-27T04:43:26.039Z,93683.94
2018-04-27T04:45:53.567Z,93685.27
2018-04-27T04:48:21.292Z,93682.05
2018-04-27T04:50:48.835Z,93683.29
2018-04-27T04:53:16.371Z,93684.71
2018-04-27T04:55:44.095Z,93675.86
2018-04-27T04:58:11.651Z,93668.23
2018-04-27T05:00:39.198Z,93658.58
2018-04-27T05:03:06.820Z,93663.45
2018-04-27T05:05:34.386Z,93661.41
2018-04-27T05:08:01.965Z,93668.75
2018-04-27T05:10:29.562Z,93659.70
2018-04-27T05:12:57.108Z,93660.03
2018-04-27T05:15:24.646Z,93667.56
2018-04-27T05:17:52.397Z,93672.73
2018-04-27T05:20:19.402Z,93682.04
2018-04-27T05:22:46.940Z,93684.25
2018-04-27T05:25:14.583Z,93698.33
2018-04-27T05:27:42.145Z,93699.82
2018-04-27T05:30:09.681Z,93709.06
2018-04-27T05:32:37.279Z,93709.77
2018-04-27T05:35:04.820Z,93708.89
2018-04-27T05:37:32.378Z,93714.38
2018-04-27T05:40:00.172Z,93716.55
2018-04-27T05:42:27.777Z,93729.17
2018-04-27T05:44:55.341Z,93737.31
2018-04-27T05:47:23.050Z,93741.02
2018-04-27T05:49:50.637Z,93748.96
2018-04-27T05:52:18.170Z,93749.91
2018-04-27T05:54:45.717Z,93759.42
2018-04-27T05:57:13.260Z,93758.55
2018-04-27T05:59:40.840Z,93767.98
2018-04-27T06:02:08.392Z,93758.44
2018-04-27T06:04:36.017Z,93765.23
2018-04-27T06:07:03.626Z,93771.23
2018-04-27T06:09:31.245Z,93768.25
2018-04-27T06:11:58.793Z,93776.70
2018-04-27T06:14:26.380Z,93766.44
2018-04-27T06:16:53.919Z,93778.16
2018-04-27T06:19:21.480Z,93778.45
2018-04-27T06:21:49.208Z,93778.94
2018-04-27T06:24:16.790Z,93786.00
2018-04-27T06:26:44.336Z,93789.27
2018-04-27T06:29:12.208Z,93799.09
2018-04-27T06:31:39.782Z,93796.67
2018-04-27T06:34:07.340Z,93802.92
2018-04-27T06:36:34.918Z,93811.59
2018-04-27T06:39:02.460Z,93805.53
2018-04-27T06:41:30.053Z,93803.86
2018-04-27T06:43:57.676Z,93808.84
2018-04-27T06:46:25.254Z,93815.42
2018-04-27T06:48:52.800Z,93818.73
2018-04-27T06:51:20.568Z,93813.86
2018-04-27T06:53:48.131Z,93818.92
2018-04-27T06:56:15.732Z,93813.09
2018-04-27T06:58:43.639Z,93808.55
2018-04-27T07:01:11.203Z,93807.16
2018-04-27T07:03:38.791Z,93805.42
2018-04-27T07:06:06.394Z,93803.80
2018-04-27T07:08:33.988Z,93805.88
2018-04-27T07:11:01.577Z,93806.64
2018-04-27T07:13:29.196Z,93811.80
2018-04-27T07:15:56.760Z,93809.24
2018-04-27T07:18:24.306Z,93807.28
2018-04-27T07:20:52.172Z,93809.53
2018-04-27T07:23:19.721Z,93811.80
2018-04-27T07:25:47.388Z,93810.19
2018-04-27T07:28:14.948Z,93812.10
2018-04-27T07:30:42.518Z,93814.31
2018-04-27T07:33:10.094Z,93817.16
2018-04-27T07:35:38.029Z,93811.55
2018-04-27T07:38:05.607Z,93815.82
2018-04-27T07:40:33.197Z,93819.37
2018-04-27T07:43:00.820Z,93817.31
2018-04-27T07:45:28.394Z,93817.47
2018-04-27T07:47:55.960Z,93817.48
2018-04-27T07:50:23.578Z,93824.49
2018-04-27T07:52:51.149Z,93826.02
2018-04-27T07:55:18.757Z,93828.73
2018-04-27T07:57:46.329Z,93825.38
2018-04-27T08:00:13.928Z,93826.39
2018-04-27T08:02:41.493Z,93825.55
2018-04-27T08:05:09.172Z,93827.84
2018-04-27T08:07:36.757Z,93834.45
2018-04-27T08:10:04.352Z,93831.74
2018-04-27T08:12:31.959Z,93835.25
2018-04-27T08:14:59.544Z,93831.52
2018-04-27T08:17:27.120Z,93833.98
2018-04-27T08:19:55.048Z,93830.68
2018-04-27T08:22:22.731Z,93834.15
2018-04-27T08:24:50.312Z,93834.36
2018-04-27T08:27:18.165Z,93838.44
2018-04-27T08:29:45.758Z,93838.80
2018-04-27T08:32:13.348Z,93839.47
2018-04-27T08:34:41.009Z,93838.73
2018-04-27T08:37:08.562Z,93841.58
2018-04-27T08:39:36.112Z,93840.02
2018-04-27T08:42:03.712Z,93836.63
2018-04-27T08:44:31.282Z,93835.68
2018-04-27T08:46:58.845Z,93831.48
2018-04-27T08:49:26.454Z,93828.23
2018-04-27T08:51:54.046Z,93831.44
2018-04-27T08:54:21.634Z,93829.52
2018-04-27T08:56:49.377Z,93828.84
2018-04-27T08:59:16.968Z,93833.36
2018-04-27T09:01:44.526Z,93831.70
2018-04-27T09:04:12.276Z,93834.09
2018-04-27T09:06:39.859Z,93829.47
2018-04-27T09:09:07.422Z,93833.48
2018-04-27T09:11:35.034Z,93832.77
2018-04-27T09:14:02.603Z,93834.43
2018-04-27T09:16:30.160Z,93831.78
2018-04-27T09:18:57.737Z,93836.93
2018-04-27T09:21:25.335Z,93834.66
2018-04-27T09:23:52.900Z,93833.58
2018-04-27T09:26:20.729Z,93838.38
2018-04-27T09:28:48.305Z,93837.70
2018-04-27T09:31:15.879Z,93840.67
2018-04-27T09:33:43.469Z,93834.38
2018-04-27T09:36:11.028Z,93840.16
2018-04-27T09:38:38.580Z,93841.36
2018-04-27T09:41:06.198Z,93836.72
2018-04-27T09:43:33.799Z,93838.92
2018-04-27T09:46:01.396Z,93836.08
2018-04-27T09:48:29.038Z,93833.30
2018-04-27T09:50:56.633Z,93834.86
2018-04-27T09:53:24.205Z,93828.66
2018-04-27T09:55:51.804Z,93830.07
2018-04-27T09:58:19.397Z,93830.72
2018-04-27T10:00:46.999Z,93828.62
2018-04-27T10:03:14.621Z,93826.91
2018-04-27T10:05:42.218Z,93826.70
2018-04-27T10:08:09.820Z,93821.88
2018-04-27T10:10:37.548Z,93824.54
2018-04-27T10:13:05.135Z,93824.42
2018-04-27T10:15:32.689Z,93823.01
2018-04-27T10:18:00.272Z,93822.05
2018-04-27T10:20:27.901Z,93820.90
2018-04-27T10:22:55.430Z,93810.47
2018-04-27T10:25:23.153Z,93807.84
2018-04-27T10:27:50.699Z,93810.30
2018-04-27T10:30:18.286Z,93808.19
2018-04-27T10:32:45.858Z,93804.11
2018-04-27T10:35:13.396Z,93800.52
2018-04-27T10:37:40.963Z,93797.92
2018-04-27T10:40:08.592Z,93796.53
2018-04-27T10:42:36.127Z,93796.35
2018-04-27T10:45:03.744Z,93791.97
2018-04-27T10:47:31.673Z,93792.22
2018-04-27T10:49:59.305Z,93794.55
2018-04-27T10:52:26.883Z,93786.84
2018-04-27T10:54:54.470Z,93788.03
2018-04-27T10:57:22.044Z,93785.68
2018-04-27T10:59:49.808Z,93779.14
2018-04-27T11:02:17.388Z,93785.12
2018-04-27T11:04:44.975Z,93781.63
2018-04-27T11:07:12.600Z,93787.50
2018-04-27T11:09:40.302Z,93790.11
2018-04-27T11:12:07.796Z,93782.85
2018-04-27T11:14:35.437Z,93777.41
2018-04-27T11:17:03.007Z,93783.10
2018-04-27T11:19:30.606Z,93778.11
2018-04-27T11:21:58.207Z,93772.41
2018-04-27T11:24:25.858Z,93769.58
2018-04-27T11:26:53.437Z,93771.20
2018-04-27T11:29:21.000Z,93779.02
2018-04-27T11:31:48.536Z,93770.55
2018-04-27T11:34:16.104Z,93775.21
2018-04-27T11:36:43.715Z,93763.64
2018-04-27T11:39:11.280Z,93766.13
2018-04-27T11:41:38.828Z,93766.06
2018-04-27T11:44:06.411Z,93764.22
2018-04-27T11:46:34.081Z,93765.06
2018-04-27T11:49:01.678Z,93760.18
2018-04-27T11:51:29.559Z,93755.10
2018-04-27T11:53:57.112Z,93757.30
2018-04-27T11:56:24.700Z,93752.75
2018-04-27T11:58:52.605Z,93759.23
2018-04-27T12:01:20.200Z,93757.76
2018-04-27T12:03:47.862Z,93751.72
2018-04-27T12:06:15.456Z,93752.79
2018-04-27T12:08:43.025Z,93753.08
2018-04-27T12:11:10.626Z,93744.95
2018-04-27T12:13:38.406Z,93745.73
2018-04-27T12:16:06.010Z,93747.51
2018-04-27T12:18:33.608Z,93750.03
2018-04-27T12:21:01.184Z,93741.38
2018-04-27T12:23:28.723Z,93740.41
2018-04-27T12:25:56.316Z,93731.41
2018-04-27T12:28:23.988Z,93734.03
2018-04-27T12:30:51.599Z,93725.75
2018-04-27T12:33:19.095Z,93727.75
2018-04-27T12:35:46.772Z,93722.66
2018-04-27T12:38:14.369Z,93722.94
2018-04-27T12:40:41.954Z,93723.11
2018-04-27T12:43:09.606Z,93718.81
2018-04-27T12:45:37.266Z,93712.01
2018-04-27T12:48:04.840Z,93700.16
2018-04-27T12:50:32.621Z,93702.45
2018-04-27T12:53:00.214Z,93694.06
2018-04-27T12:55:27.828Z,93702.48
2018-04-27T12:57:55.576Z,93700.07
2018-04-27T13:00:23.147Z,93693.71
2018-04-27T13:02:50.695Z,93697.37
2018-04-27T13:05:18.482Z,93690.03
2018-04-27T13:07:46.067Z,93682.48
2018-04-27T13:10:13.649Z,93677.91
2018-04-27T13:12:42.224Z,93673.70
2018-04-27T13:15:09.808Z,93674.20
2018-04-27T13:17:37.398Z,93663.42
2018-04-27T13:20:04.989Z,93665.77
2018-04-27T13:22:32.543Z,93659.20
2018-04-27T13:25:00.104Z,93667.09
2018-04-27T13:27:27.691Z,93667.54
2018-04-27T13:29:55.245Z,93666.03
2018-04-27T13:32:22.785Z,93661.16
2018-04-27T13:34:50.487Z,93654.15
2018-04-27T13:37:18.099Z,93663.89
2018-04-27T13:39:45.683Z,93659.09
2018-04-27T13:42:13.336Z,93656.63
2018-04-27T13:44:40.924Z,93661.34
2018-04-27T13:47:08.502Z,93661.53
2018-04-27T13:49:36.253Z,93661.95
2018-04-27T13:52:03.823Z,93660.43
2018-04-27T13:54:31.408Z,93657.91
2018-04-27T13:56:59.189Z,93652.19
2018-04-27T13:59:26.787Z,93656.49
2018-04-27T14:01:54.368Z,93661.65
2018-04-27T14:04:22.092Z,93661.57
2018-04-27T14:06:49.662Z,93655.42
2018-04-27T14:09:17.243Z,93651.16
2018-04-27T14:11:45.012Z,93646.34
2018-04-27T14:14:12.599Z,93659.59
2018-04-27T14:16:40.200Z,93659.94
2018-04-27T14:19:07.811Z,93668.58
2018-04-27T14:21:35.391Z,93670.05
2018-04-27T14:24:02.958Z,93667.55
2018-04-27T14:26:30.549Z,93666.09
2018-04-27T14:28:58.103Z,93665.42
2018-04-27T14:31:25.650Z,93671.33
2018-04-27T14:33:53.232Z,93667.09
2018-04-27T14:36:20.799Z,93669.29
2018-04-27T14:38:48.351Z,93666.16
2018-04-27T14:41:15.955Z,93673.23
2018-04-27T14:43:43.498Z,93666.98
2018-04-27T14:46:11.043Z,93666.17
2018-04-27T14:48:38.733Z,93669.23
2018-04-27T14:51:06.360Z,93670.05
2018-04-27T14:53:33.945Z,93672.41
2018-04-27T14:56:01.536Z,93675.03
2018-04-27T14:58:29.144Z,93670.45
2018-04-27T15:00:57.069Z,93675.77
2018-04-27T15:03:24.656Z,93681.01
2018-04-27T15:05:52.243Z,93675.16
2018-04-27T15:08:19.869Z,93673.87
2018-04-27T15:10:47.465Z,93668.85
2018-04-27T15:13:15.057Z,93666.63
2018-04-27T15:15:42.875Z,93671.23
2018-04-27T15:18:10.428Z,93672.20
2018-04-27T15:20:38.008Z,93676.88
2018-04-27T15:23:05.885Z,93677.30
2018-04-27T15:25:33.437Z,93675.03
2018-04-27T15:28:01.025Z,93669.39
2018-04-27T15:30:28.922Z,93670.68
2018-04-27T15:32:56.474Z,93673.97
2018-04-27T15:35:24.064Z,93679.52
2018-04-27T15:37:51.687Z,93674.69
2018-04-27T15:40:19.265Z,93672.65
2018-04-27T15:42:46.861Z,93677.27
2018-04-27T15:45:14.513Z,93682.45
2018-04-27T15:47:42.124Z,93679.24
2018-04-27T15:50:09.732Z,93678.51
2018-04-27T15:52:37.356Z,93683.66
2018-04-27T15:55:04.908Z,93684.34
2018-04-27T15:57:32.465Z,93680.23
2018-04-27T16:00:00.095Z,93685.70
2018-04-27T16:02:27.689Z,93684.55
2018-04-27T16:04:55.279Z,93686.58
2018-04-27T16:07:22.882Z,93695.03
2018-04-27T16:09:50.455Z,93694.63
2018-04-27T16:12:18.073Z,93702.31
2018-04-27T16:14:45.988Z,93705.10
2018-04-27T16:17:13.636Z,93716.06
2018-04-27T16:19:41.225Z,93716.53
2018-04-27T16:22:09.026Z,93725.09
2018-04-27T16:24:36.661Z,93722.94
2018-04-27T16:27:04.282Z,93728.23
2018-04-27T16:29:32.051Z,93722.29
2018-04-27T16:31:59.637Z,93720.55
2018-04-27T16:34:27.233Z,93731.52
2018-04-27T16:36:54.849Z,93736.70
2018-04-27T16:39:22.450Z,93744.05
2018-04-27T16:41:50.085Z,93745.81
2018-04-27T16:44:17.980Z,93746.57
2018-04-27T16:46:45.545Z,93750.59
2018-04-27T16:49:13.098Z,93752.64
2018-04-27T16:51:40.840Z,93751.08
2018-04-27T16:54:08.416Z,93753.16
2018-04-27T16:56:35.959Z,93760.31
2018-04-27T16:59:03.573Z,93757.58
2018-04-27T17:01:31.168Z,93759.18
2018-04-27T17:03:58.742Z,93769.39
2018-04-27T17:06:26.351Z,93766.46
2018-04-27T17:08:53.931Z,93774.09
2018-04-27T17:11:21.519Z,93782.26
2018-04-27T17:13:49.169Z,93787.34
2018-04-27T17:16:16.739Z,93790.41
2018-04-27T17:18:44.334Z,93794.05
2018-04-27T17:21:12.285Z,93797.63
2018-04-27T17:23:39.877Z,93804.37
2018-04-27T17:26:07.472Z,93805.33
2018-04-27T17:28:35.141Z,93810.63
2018-04-27T17:31:02.684Z,93805.75
2018-04-27T17:33:30.268Z,93803.87
2018-04-27T17:35:57.912Z,93804.27
2018-04-27T17:38:25.504Z,93803.47
2018-04-27T17:40:53.080Z,93804.52
2018-04-27T17:43:20.879Z,93800.77
2018-04-27T17:45:48.421Z,93803.29
2018-04-27T17:48:16.042Z,93811.52
2018-04-27T17:50:43.793Z,93809.04
2018-04-27T17:53:11.364Z,93816.13
2018-04-27T17:55:38.915Z,93817.17
2018-04-27T17:58:06.799Z,93828.65
2018-04-27T18:00:34.376Z,93828.56
2018-04-27T18:03:03.470Z,93828.39
2018-04-27T18:05:31.115Z,93826.42
2018-04-27T18:07:58.659Z,93827.28
2018-04-27T18:10:26.216Z,93838.06
2018-04-27T18:12:53.903Z,93840.78
2018-04-27T18:15:21.471Z,93841.36
2018-04-27T18:17:49.065Z,93843.14
2018-04-27T18:20:16.737Z,93846.27
2018-04-27T18:22:44.313Z,93851.38
2018-04-27T18:25:11.871Z,93860.02
2018-04-27T18:27:39.507Z,93867.06
2018-04-27T18:30:07.099Z,93864.67
2018-04-27T18:32:34.672Z,93872.73
2018-04-27T18:35:02.432Z,93870.88
2018-04-27T18:37:30.026Z,93878.41
2018-04-27T18:39:57.616Z,93878.58
2018-04-27T18:42:25.477Z,93876.97
2018-04-27T18:44:53.007Z,93886.42
2018-04-27T18:47:20.587Z,93885.36
2018-04-27T18:49:48.840Z,93888.90
2018-04-27T18:52:16.447Z,93893.75
2018-04-27T18:54:44.058Z,93890.63
2018-04-27T18:57:11.885Z,93892.93
2018-04-27T18:59:45.687Z,93895.59
2018-04-27T19:02:13.435Z,93895.07
2018-04-27T19:04:41.055Z,93893.83
2018-04-27T19:07:08.664Z,93896.09
2018-04-27T19:09:36.312Z,93899.44
2018-04-27T19:12:03.913Z,93900.91
2018-04-27T19:14:31.496Z,93896.42
2018-04-27T19:16:59.124Z,93904.16
2018-04-27T19:19:26.734Z,93899.72
2018-04-27T19:21:54.312Z,93899.59
2018-04-27T19:24:22.094Z,93900.98
2018-04-27T19:26:49.720Z,93905.80
2018-04-27T19:29:17.316Z,93902.84
2018-04-27T19:31:45.058Z,93903.10
2018-04-27T19:34:12.647Z,93907.93
2018-04-27T19:36:40.235Z,93903.84
2018-04-27T19:39:07.843Z,93896.15
2018-04-27T19:41:35.413Z,93898.97
2018-04-27T19:44:02.998Z,93899.04
2018-04-27T19:46:30.800Z,93902.02
2018-04-27T19:48:58.385Z,93902.38
2018-04-27T19:51:26.020Z,93904.48
2018-04-27T19:53:53.631Z,93908.20
2018-04-27T19:56:21.213Z,93911.52
2018-04-27T19:58:48.788Z,93913.63
2018-04-27T20:01:16.568Z,93914.28
2018-04-27T20:03:44.135Z,93911.19
2018-04-27T20:06:11.726Z,93911.31
2018-04-27T20:08:39.701Z,93912.55
2018-04-27T20:11:07.408Z,93915.81
2018-04-27T20:13:36.679Z,93919.78
2018-04-27T20:16:04.642Z,93918.09
2018-04-27T20:18:32.194Z,93918.13
2018-04-27T20:20:59.782Z,93924.16
2018-04-27T20:23:34.335Z,93920.22
2018-04-27T20:26:05.800Z,93926.05
2018-04-27T20:28:34.961Z,93926.32
2018-04-27T20:31:02.629Z,93930.38
2018-04-27T20:33:30.266Z,93938.29
2018-04-27T20:35:58.508Z,93930.33
2018-04-27T20:38:26.149Z,93931.61
2018-04-27T20:40:53.739Z,93935.74
2018-04-27T20:43:22.273Z,93934.30
2018-04-27T20:45:49.903Z,93929.51
2018-04-27T20:48:30.202Z,93928.97
2018-04-27T20:51:13.548Z,93932.68
2018-04-27T20:54:00.953Z,93935.09
2018-04-27T20:56:29.223Z,93935.09
2018-04-27T20:58:57.542Z,93941.86
2018-04-27T21:01:26.074Z,93935.00
2018-04-27T21:03:53.887Z,93930.23
2018-04-27T21:06:21.467Z,93929.34
2018-04-27T21:08:49.051Z,93930.02
2018-04-27T21:11:16.959Z,93932.97
2018-04-27T21:13:44.576Z,93931.94
2018-04-27T21:16:12.176Z,93934.65
2018-04-27T21:18:40.098Z,93934.91
2018-04-27T21:21:07.701Z,93930.22
2018-04-27T21:23:35.308Z,93928.77
2018-04-27T21:26:02.956Z,93931.88
2018-04-27T21:28:31.407Z,93925.33
2018-04-27T21:30:58.991Z,93932.77
2018-04-27T21:33:27.713Z,93929.67
2018-04-27T21:35:56.180Z,93921.47
2018-04-27T21:38:42.523Z,93925.13
2018-04-27T21:44:19.204Z,93924.13
2018-04-27T21:46:48.530Z,93923.94
2018-04-27T21:49:17.847Z,93924.48
2018-04-27T21:51:51.436Z,93922.95
2018-04-27T21:54:19.788Z,93921.69
2018-04-27T21:56:55.259Z,93924.67
2018-04-27T22:02:27.764Z,93931.50
2018-04-27T22:04:55.375Z,93933.98
2018-04-27T22:07:25.279Z,93932.15
2018-04-27T22:09:53.732Z,93936.14
2018-04-27T22:12:21.304Z,93942.45
2018-04-27T22:14:48.899Z,93942.27
2018-04-27T22:17:34.159Z,93942.14
2018-04-27T22:20:03.540Z,93943.42
2018-04-27T22:22:31.120Z,93939.75
2018-04-27T22:28:02.576Z,93948.03
2018-04-27T22:30:33.080Z,93939.56
2018-04-27T22:33:00.724Z,93940.83
2018-04-27T22:35:35.848Z,93939.73
2018-04-27T22:38:04.268Z,93938.78
2018-04-27T22:40:36.753Z,93938.23
2018-04-27T22:43:09.780Z,93933.77
2018-04-27T22:45:38.335Z,93929.09
2018-04-27T22:48:10.752Z,93935.71
2018-04-27T22:53:48.718Z,93933.14
2018-04-27T22:56:17.535Z,93937.07
2018-04-27T22:58:45.151Z,93936.00
2018-04-27T23:01:13.667Z,93937.01
2018-04-27T23:03:43.444Z,93939.56
2018-04-27T23:06:11.041Z,93937.41
2018-04-27T23:08:41.245Z,93936.23
2018-04-27T23:11:12.715Z,93933.18
2018-04-27T23:13:47.103Z,93936.47
2018-04-27T23:16:30.524Z,93933.50
2018-04-27T23:18:58.094Z,93936.28
2018-04-27T23:24:41.793Z,93946.70
2018-04-27T23:27:09.399Z,93940.90
2018-04-27T23:29:36.985Z,93940.24
2018-04-27T23:32:04.546Z,93941.63
2018-04-27T23:34:32.867Z,93945.14
2018-04-27T23:37:00.463Z,93945.02
2018-04-27T23:39:28.106Z,93943.34
2018-04-27T23:41:55.828Z,93942.68
2018-04-27T23:44:23.400Z,93944.13
2018-04-27T23:46:50.998Z,93934.45
2018-04-27T23:49:21.484Z,93938.89
2018-04-27T23:51:49.066Z,93937.91
2018-04-27T23:54:16.655Z,93941.91
2018-04-27T23:56:47.959Z,93937.48
2018-04-27T23:59:16.872Z,93944.76
